Haven, Wisconsin
Current Conditions -  °F | °C
As of 12:53 PM on Monday 20 Oct 2014 (Local Time) from KSBM Reporting Station
Overcast Overcast  
Wind Chill: 53°   Ceiling: 4200
Heat Index: 53°   Visibility: 10mi
Dew Point: 45°   Wind: 10mph
Humidity: 74%   Direction: 310°NW
Pressure: 29.86"   Gusts: NA
Location:  43.8288°N, 87.7756°W
Report Text: KSBM 201753Z AUTO 31009KT 10SM FEW024 BKN042 OVC050 12/07 A2986 RMK AO2 SLP115 T01170072 10128 20078 53004
Loading
Personal Weather Stations






























Interactive Weather Map
Tropical Storm Tracking
New forecast layout! Learn more

10-Day Weather Forecast

Advertisements
Track Severe Weather on mobile